Time;durP1;ratioP1;P1;durP2;ratioP2;P2;SDS_P1;SDS_P2;PMS_P1;PMS_P2;Temp;Humidity;BMP_temperature;BMP_pressure;BME280_temperature;BME280_humidity;BME280_pressure;Samples;Min_cycle;Max_cycle;Signal;HPM_P1;HPM_P2
2022/10/23 00:01:32;;;;;;;7.03;3.88;;;;;19.10;101215.00;;;;5091779;28;20206;-75
2022/10/23 00:04:01;;;;;;;6.15;3.60;;;;;19.10;101212.00;;;;5091172;28;20206;-75
2022/10/23 00:06:32;;;;;;;6.13;3.85;;;;;19.00;101213.00;;;;5090326;28;20210;-75
2022/10/23 00:08:59;;;;;;;4.43;3.45;;;;;19.10;101223.00;;;;5090894;28;20213;-75
2022/10/23 00:11:29;;;;;;;5.57;3.65;;;;;19.00;101220.00;;;;5090462;28;20707;-74
2022/10/23 00:13:59;;;;;;;4.22;3.67;;;;;19.00;101222.00;;;;5091388;28;20218;-75
2022/10/23 00:16:26;;;;;;;4.28;3.50;;;;;19.00;101218.00;;;;5090461;28;20214;-74
2022/10/23 00:18:54;;;;;;;11.27;3.75;;;;;19.00;101220.00;;;;5091428;28;20288;-75
2022/10/23 00:21:21;;;;;;;8.43;3.90;;;;;19.00;101227.00;;;;5089903;28;20205;-74
2022/10/23 00:23:50;;;;;;;4.43;3.42;;;;;19.00;101223.00;;;;5091037;28;20198;-74
2022/10/23 00:26:18;;;;;;;6.13;3.70;;;;;19.00;101212.00;;;;5090402;28;20222;-74
2022/10/23 00:28:47;;;;;;;4.28;3.53;;;;;19.00;101215.00;;;;5090391;28;20214;-74
2022/10/23 00:31:15;;;;;;;4.38;3.47;;;;;19.00;101222.00;;;;5090558;28;20222;-75
2022/10/23 00:33:42;;;;;;;8.60;3.75;;;;;19.00;101213.00;;;;5090655;28;20233;-75
2022/10/23 00:36:13;;;;;;;4.78;3.60;;;;;19.00;101213.00;;;;5091096;28;20194;-74
2022/10/23 00:38:40;;;;;;;6.80;3.85;;;;;19.00;101211.00;;;;5091202;28;20198;-75
2022/10/23 00:41:14;;;;;;;4.47;4.05;;;;;18.90;101207.00;;;;5091174;28;20194;-74
2022/10/23 00:43:58;;;;;;;6.43;3.00;;;;;18.90;101204.00;;;;5091210;28;20197;-74
2022/10/23 00:46:26;;;;;;;4.85;3.42;;;;;19.00;101204.00;;;;5090155;28;20210;-75
2022/10/23 00:48:53;;;;;;;7.70;4.47;;;;;19.00;101203.00;;;;5090193;28;20575;-74
2022/10/23 00:51:21;;;;;;;4.72;3.22;;;;;19.00;101200.00;;;;5090470;28;20225;-74
2022/10/23 00:53:52;;;;;;;5.63;3.63;;;;;18.90;101204.00;;;;5090698;28;20199;-75
2022/10/23 00:56:21;;;;;;;6.50;4.05;;;;;18.90;101211.00;;;;5090617;28;20207;-74
2022/10/23 00:58:48;;;;;;;5.13;3.83;;;;;19.00;101204.00;;;;5090635;28;20653;-75
2022/10/23 01:01:19;;;;;;;6.78;3.88;;;;;18.90;101206.00;;;;5090704;28;20202;-74
2022/10/23 01:03:46;;;;;;;6.70;3.80;;;;;18.90;101199.00;;;;5091283;28;20190;-75
2022/10/23 01:06:21;;;;;;;6.50;3.70;;;;;18.90;101205.00;;;;5089436;28;20198;-75
2022/10/23 01:08:52;;;;;;;4.53;3.60;;;;;18.90;101202.00;;;;5090519;28;20185;-75
2022/10/23 01:11:28;;;;;;;6.65;3.90;;;;;18.90;101205.00;;;;5089730;28;20219;-74
2022/10/23 01:14:01;;;;;;;5.72;3.88;;;;;18.90;101205.00;;;;5091060;28;20193;-75
2022/10/23 01:16:36;;;;;;;5.25;4.00;;;;;18.90;101205.00;;;;5089749;28;20664;-75
2022/10/23 01:19:12;;;;;;;4.80;3.80;;;;;18.80;101198.00;;;;5090482;28;20198;-75
2022/10/23 01:21:53;;;;;;;4.93;3.33;;;;;18.80;101193.00;;;;5090211;28;20233;-75
2022/10/23 01:24:32;;;;;;;4.50;3.45;;;;;18.90;101194.00;;;;5090399;28;20198;-74
2022/10/23 01:27:15;;;;;;;5.05;3.75;;;;;18.80;101190.00;;;;5089195;28;20218;-75
2022/10/23 01:29:46;;;;;;;4.45;3.67;;;;;18.90;101200.00;;;;5090206;28;20206;-75
2022/10/23 01:32:16;;;;;;;6.13;3.63;;;;;18.80;101188.00;;;;5089738;28;20229;-74
2022/10/23 01:34:48;;;;;;;7.60;4.30;;;;;18.80;101187.00;;;;5089596;28;20202;-74
2022/10/23 01:37:21;;;;;;;11.75;4.07;;;;;18.80;101185.00;;;;5089799;28;20209;-74
2022/10/23 01:39:53;;;;;;;7.22;3.60;;;;;18.80;101187.00;;;;5089870;28;20199;-74
2022/10/23 01:42:29;;;;;;;4.88;3.42;;;;;18.80;101184.00;;;;5089683;28;20210;-74
2022/10/23 01:45:03;;;;;;;6.28;3.75;;;;;18.80;101185.00;;;;5090434;28;20205;-74
2022/10/23 01:47:33;;;;;;;5.40;4.40;;;;;18.80;101179.00;;;;5090064;28;20202;-74
2022/10/23 01:50:02;;;;;;;6.03;3.45;;;;;18.80;101184.00;;;;5089812;28;20209;-74
2022/10/23 01:52:30;;;;;;;5.53;3.83;;;;;18.80;101162.00;;;;5088906;28;20222;-74
2022/10/23 01:54:59;;;;;;;6.30;3.30;;;;;18.80;101164.00;;;;5089965;28;20672;-74
2022/10/23 01:57:30;;;;;;;7.85;3.75;;;;;18.80;101167.00;;;;5089486;28;20214;-75
2022/10/23 02:00:01;;;;;;;4.50;3.63;;;;;18.80;101165.00;;;;5088850;28;20199;-74
2022/10/23 02:02:29;;;;;;;6.25;3.22;;;;;18.80;101159.00;;;;5089350;28;20679;-75
2022/10/23 02:05:02;;;;;;;5.10;3.08;;;;;18.80;101151.00;;;;5089627;28;20202;-75
2022/10/23 02:07:29;;;;;;;4.93;3.30;;;;;18.80;101153.00;;;;5089023;28;20213;-74
2022/10/23 02:09:57;;;;;;;4.85;3.65;;;;;18.80;101144.00;;;;5089059;28;20210;-74
2022/10/23 02:12:33;;;;;;;4.05;3.20;;;;;18.70;101137.00;;;;5088703;28;20221;-74
2022/10/23 02:15:07;;;;;;;4.35;3.53;;;;;18.70;101134.00;;;;5089526;28;20209;-75
2022/10/23 02:17:46;;;;;;;5.75;3.92;;;;;18.70;101136.00;;;;5089322;28;20204;-75
2022/10/23 02:20:19;;;;;;;5.95;3.25;;;;;18.70;101134.00;;;;5088745;28;20220;-74
2022/10/23 02:22:54;;;;;;;9.80;3.97;;;;;18.70;101125.00;;;;5089046;28;20515;-74
2022/10/23 02:25:30;;;;;;;4.97;3.53;;;;;18.60;101126.00;;;;5089055;28;20212;-75
2022/10/23 02:28:03;;;;;;;7.68;3.83;;;;;18.60;101115.00;;;;5088985;28;20210;-74
2022/10/23 02:30:32;;;;;;;8.45;3.60;;;;;18.70;101119.00;;;;5088944;28;20202;-75
2022/10/23 02:33:00;;;;;;;6.28;3.70;;;;;18.70;101116.00;;;;5088972;28;20241;-75
2022/10/23 02:35:28;;;;;;;3.65;3.05;;;;;18.60;101113.00;;;;5088194;28;20198;-74
2022/10/23 02:37:56;;;;;;;4.35;3.40;;;;;18.60;101111.00;;;;5070543;28;20579;-74
2022/10/23 02:40:26;;;;;;;5.78;3.90;;;;;18.60;101123.00;;;;5088910;28;20210;-75
2022/10/23 02:43:01;;;;;;;10.02;4.35;;;;;18.60;101123.00;;;;5088899;28;20209;-74
2022/10/23 02:45:34;;;;;;;6.47;4.50;;;;;18.60;101128.00;;;;5088988;28;20202;-74
2022/10/23 02:48:11;;;;;;;5.32;3.90;;;;;18.60;101122.00;;;;5088849;28;20194;-74
2022/10/23 02:50:49;;;;;;;7.18;3.67;;;;;18.60;101122.00;;;;5089417;28;20198;-74
2022/10/23 02:53:20;;;;;;;6.07;3.25;;;;;18.60;101120.00;;;;5088475;28;20237;-74
2022/10/23 02:56:00;;;;;;;8.52;3.88;;;;;18.50;101121.00;;;;5088606;28;20198;-74
2022/10/23 02:58:37;;;;;;;5.38;4.00;;;;;18.50;101112.00;;;;5087643;28;20202;-75
2022/10/23 03:01:09;;;;;;;4.95;3.55;;;;;18.60;101108.00;;;;5088718;28;20201;-74
2022/10/23 03:03:40;;;;;;;5.43;3.50;;;;;18.60;101104.00;;;;5088778;28;20205;-74
2022/10/23 03:06:08;;;;;;;4.03;2.92;;;;;18.60;101088.00;;;;5088211;28;20209;-74
2022/10/23 03:08:42;;;;;;;6.32;3.67;;;;;18.50;101087.00;;;;5088026;28;20203;-74
2022/10/23 03:11:10;;;;;;;5.50;3.83;;;;;18.60;101094.00;;;;5087791;28;20198;-74
2022/10/23 03:13:38;;;;;;;6.28;3.47;;;;;18.60;101081.00;;;;5088281;28;20699;-74
2022/10/23 03:16:05;;;;;;;4.28;2.92;;;;;18.60;101088.00;;;;5088049;28;20198;-74
2022/10/23 03:18:33;;;;;;;4.43;3.22;;;;;18.60;101083.00;;;;5088337;28;20206;-75
2022/10/23 03:21:00;;;;;;;5.88;3.63;;;;;18.60;101078.00;;;;5087757;28;20202;-75
2022/10/23 03:23:27;;;;;;;4.72;4.13;;;;;18.60;101072.00;;;;5088010;28;20209;-74
2022/10/23 03:25:55;;;;;;;6.88;3.65;;;;;18.60;101075.00;;;;5088691;28;20197;-74
2022/10/23 03:28:22;;;;;;;8.60;3.55;;;;;18.60;101074.00;;;;5088300;28;20309;-74
2022/10/23 03:30:51;;;;;;;3.95;3.25;;;;;18.60;101058.00;;;;5087673;28;20198;-74
2022/10/23 03:33:19;;;;;;;5.38;3.42;;;;;18.60;101055.00;;;;5087976;28;20245;-74
2022/10/23 03:35:47;;;;;;;5.97;3.78;;;;;18.60;101050.00;;;;5088277;28;20197;-74
2022/10/23 03:38:15;;;;;;;5.45;3.38;;;;;18.60;101051.00;;;;5088197;28;20209;-75
2022/10/23 03:40:43;;;;;;;3.88;3.38;;;;;18.60;101038.00;;;;5087921;28;20212;-74
2022/10/23 03:43:10;;;;;;;4.70;3.33;;;;;18.60;101042.00;;;;5087791;28;20209;-74
2022/10/23 03:45:38;;;;;;;5.28;3.45;;;;;18.60;101037.00;;;;5088290;28;20602;-74
2022/10/23 03:48:07;;;;;;;10.63;4.28;;;;;18.60;101041.00;;;;5088084;28;20748;-75
2022/10/23 03:50:35;;;;;;;6.38;3.22;;;;;18.60;101034.00;;;;5088676;28;20202;-74
2022/10/23 03:53:02;;;;;;;6.70;3.15;;;;;18.60;101041.00;;;;5088271;28;20226;-75
2022/10/23 03:55:30;;;;;;;10.35;4.22;;;;;18.60;101037.00;;;;5088069;28;20202;-74
2022/10/23 03:57:57;;;;;;;5.53;3.30;;;;;18.60;101038.00;;;;5087821;28;20714;-75
2022/10/23 04:00:24;;;;;;;4.03;3.60;;;;;18.60;101022.00;;;;5087768;28;20194;-74
2022/10/23 04:02:51;;;;;;;3.55;3.05;;;;;18.60;101015.00;;;;5088095;28;20198;-75
2022/10/23 04:05:20;;;;;;;7.10;3.40;;;;;18.60;101015.00;;;;5088176;28;20203;-74
2022/10/23 04:07:47;;;;;;;4.93;3.17;;;;;18.60;101011.00;;;;5087989;28;20202;-74
2022/10/23 04:10:15;;;;;;;3.88;2.83;;;;;18.60;101005.00;;;;5087325;28;20202;-74
2022/10/23 04:12:42;;;;;;;4.72;2.97;;;;;18.60;101002.00;;;;5087238;28;20244;-74
2022/10/23 04:15:10;;;;;;;4.72;2.90;;;;;18.60;101009.00;;;;5087649;28;20205;-75
2022/10/23 04:17:37;;;;;;;4.78;2.80;;;;;18.60;100998.00;;;;5087846;28;20210;-75
2022/10/23 04:20:05;;;;;;;3.00;2.50;;;;;18.60;100992.00;;;;5087816;28;20201;-75
2022/10/23 04:22:33;;;;;;;4.45;2.40;;;;;18.60;100993.00;;;;5090207;28;20208;-75
2022/10/23 04:25:01;;;;;;;4.90;3.17;;;;;18.60;100998.00;;;;5090740;28;20202;-75
2022/10/23 04:27:28;;;;;;;3.08;2.75;;;;;18.60;100992.00;;;;5091062;28;20725;-75
2022/10/23 04:29:55;;;;;;;4.93;3.45;;;;;18.60;100991.00;;;;5091765;28;20202;-75
2022/10/23 04:32:22;;;;;;;4.40;2.92;;;;;18.60;100985.00;;;;5091003;28;20233;-75
2022/10/23 04:34:49;;;;;;;4.30;2.33;;;;;18.60;100991.00;;;;5091619;28;20210;-75
2022/10/23 04:37:17;;;;;;;5.13;2.92;;;;;18.60;100986.00;;;;5090481;28;20202;-75
2022/10/23 04:39:46;;;;;;;4.38;3.03;;;;;18.60;100986.00;;;;5091364;28;20198;-75
2022/10/23 04:42:13;;;;;;;5.47;2.83;;;;;18.60;100976.00;;;;5091437;28;20293;-75
2022/10/23 04:44:40;;;;;;;3.72;2.25;;;;;18.70;100977.00;;;;5090772;28;20225;-75
2022/10/23 04:47:08;;;;;;;3.90;2.90;;;;;18.70;100964.00;;;;5090282;28;20206;-75
2022/10/23 04:49:35;;;;;;;3.03;2.50;;;;;18.70;100975.00;;;;5091560;28;20206;-75
2022/10/23 04:52:02;;;;;;;6.00;2.92;;;;;18.70;100965.00;;;;5091461;28;20198;-75
2022/10/23 04:54:34;;;;;;;5.60;2.55;;;;;18.70;100969.00;;;;5090370;28;20229;-75
2022/10/23 04:57:03;;;;;;;3.20;2.63;;;;;18.70;100958.00;;;;5090544;28;20202;-75
2022/10/23 04:59:30;;;;;;;27.55;2.55;;;;;18.70;100962.00;;;;5090687;28;20206;-75
2022/10/23 05:01:57;;;;;;;3.63;2.40;;;;;18.80;100957.00;;;;5090396;28;20209;-75
2022/10/23 05:04:25;;;;;;;4.32;2.40;;;;;18.80;100963.00;;;;5090475;28;20202;-75
2022/10/23 05:06:52;;;;;;;4.97;2.33;;;;;18.80;100960.00;;;;5090667;28;20198;-75
2022/10/23 05:09:21;;;;;;;3.38;2.65;;;;;18.80;100956.00;;;;5090151;28;20668;-75
2022/10/23 05:11:48;;;;;;;3.55;2.53;;;;;18.80;100964.00;;;;5090593;28;20281;-75
2022/10/23 05:14:17;;;;;;;4.72;2.47;;;;;18.80;100969.00;;;;5090182;28;20261;-75
2022/10/23 05:16:49;;;;;;;3.35;2.17;;;;;18.80;100965.00;;;;5090788;28;20207;-75
2022/10/23 05:19:21;;;;;;;4.45;2.63;;;;;18.90;100965.00;;;;5089585;28;20213;-75
2022/10/23 05:21:51;;;;;;;2.80;2.10;;;;;18.90;100960.00;;;;5090472;28;20202;-75
2022/10/23 05:24:18;;;;;;;2.97;2.22;;;;;18.90;100959.00;;;;5090257;28;20629;-75
2022/10/23 05:26:45;;;;;;;4.80;2.60;;;;;19.00;100961.00;;;;5090296;28;20206;-75
2022/10/23 05:29:13;;;;;;;5.40;2.25;;;;;19.00;100963.00;;;;5089410;28;20214;-75
2022/10/23 05:31:41;;;;;;;2.85;1.80;;;;;19.00;100961.00;;;;5089993;28;20676;-75
2022/10/23 05:34:09;;;;;;;5.20;2.83;;;;;19.00;100958.00;;;;5088999;28;20287;-76
2022/10/23 05:36:37;;;;;;;4.35;2.15;;;;;19.00;100957.00;;;;5090217;28;20220;-76
2022/10/23 05:39:05;;;;;;;2.25;2.05;;;;;19.10;100958.00;;;;5090270;28;20198;-75
2022/10/23 05:41:32;;;;;;;5.07;2.00;;;;;19.10;100955.00;;;;5089569;28;20198;-76
2022/10/23 05:43:59;;;;;;;4.70;2.25;;;;;19.10;100959.00;;;;5089667;28;20671;-76
2022/10/23 05:46:27;;;;;;;6.88;2.40;;;;;19.10;100955.00;;;;5090016;28;20205;-76
2022/10/23 05:48:56;;;;;;;3.55;1.98;;;;;19.10;100945.00;;;;5089986;28;20206;-76
2022/10/23 05:51:23;;;;;;;6.90;2.75;;;;;19.20;100940.00;;;;5089146;28;20198;-75
2022/10/23 05:53:52;;;;;;;2.47;2.20;;;;;19.20;100942.00;;;;5089569;28;20230;-76
2022/10/23 05:56:19;;;;;;;3.17;1.80;;;;;19.20;100937.00;;;;5089681;28;20383;-76
2022/10/23 05:58:47;;;;;;;2.88;2.03;;;;;19.20;100939.00;;;;5089348;28;20198;-75
2022/10/23 06:01:16;;;;;;;3.95;2.17;;;;;19.30;100942.00;;;;5089313;28;20205;-77
2022/10/23 06:03:44;;;;;;;4.80;2.33;;;;;19.30;100935.00;;;;5089447;28;20202;-74
2022/10/23 06:06:12;;;;;;;3.60;1.98;;;;;19.20;100932.00;;;;5089228;28;20683;-74
2022/10/23 06:08:39;;;;;;;3.13;2.03;;;;;19.30;100930.00;;;;5089354;28;20672;-74
2022/10/23 06:11:08;;;;;;;2.78;2.10;;;;;19.30;100927.00;;;;5089356;28;20194;-74
2022/10/23 06:13:35;;;;;;;5.78;2.60;;;;;19.30;100924.00;;;;5088926;28;20221;-73
2022/10/23 06:16:09;;;;;;;4.60;2.60;;;;;19.30;100916.00;;;;5089411;28;20210;-74
2022/10/23 06:18:37;;;;;;;3.20;2.25;;;;;19.30;100907.00;;;;5089380;28;20201;-74
2022/10/23 06:21:04;;;;;;;3.95;2.03;;;;;19.30;100901.00;;;;5089285;28;20205;-74
2022/10/23 06:23:34;;;;;;;8.68;2.70;;;;;19.30;100910.00;;;;5088860;28;20201;-74
2022/10/23 06:26:01;;;;;;;2.83;2.45;;;;;19.40;100901.00;;;;5088793;28;20198;-73
2022/10/23 06:28:29;;;;;;;3.85;2.40;;;;;19.40;100905.00;;;;5089060;28;20355;-74
2022/10/23 06:30:56;;;;;;;4.22;2.70;;;;;19.40;100914.00;;;;5088341;28;20229;-74
2022/10/23 06:33:23;;;;;;;2.90;1.77;;;;;19.40;100906.00;;;;5087941;28;20238;-74
2022/10/23 06:35:51;;;;;;;3.28;2.60;;;;;19.40;100901.00;;;;5088281;28;20292;-75
2022/10/23 06:38:18;;;;;;;9.30;2.38;;;;;19.40;100902.00;;;;5089039;28;20205;-75
2022/10/23 06:40:54;;;;;;;3.70;2.33;;;;;19.30;100893.00;;;;5088335;28;20198;-74
2022/10/23 06:43:21;;;;;;;3.60;2.42;;;;;19.40;100888.00;;;;5089339;28;20202;-75
2022/10/23 06:45:48;;;;;;;3.10;2.10;;;;;19.40;100887.00;;;;5089340;28;20201;-74
2022/10/23 06:48:16;;;;;;;3.78;2.40;;;;;19.40;100883.00;;;;5088729;28;20203;-74
2022/10/23 06:50:43;;;;;;;5.72;2.38;;;;;19.40;100875.00;;;;5088337;28;20367;-75
2022/10/23 06:53:11;;;;;;;8.23;3.00;;;;;19.40;100874.00;;;;5088751;28;20222;-74
2022/10/23 06:55:39;;;;;;;3.40;2.40;;;;;19.40;100874.00;;;;5089081;28;20213;-75
2022/10/23 06:58:09;;;;;;;2.88;2.20;;;;;19.40;100874.00;;;;5088335;28;20668;-75
2022/10/23 07:00:37;;;;;;;3.30;2.03;;;;;19.50;100868.00;;;;5089016;28;20271;-75
2022/10/23 07:03:05;;;;;;;3.72;2.35;;;;;19.40;100880.00;;;;5088472;28;20202;-75
2022/10/23 07:05:33;;;;;;;3.45;2.13;;;;;19.40;100877.00;;;;5088965;28;20213;-75
2022/10/23 07:08:00;;;;;;;3.63;2.60;;;;;19.50;100884.00;;;;5088399;28;20202;-74
2022/10/23 07:10:27;;;;;;;2.90;2.17;;;;;19.50;100878.00;;;;5087437;28;20202;-75
2022/10/23 07:12:59;;;;;;;4.03;2.05;;;;;19.50;100868.00;;;;5088493;28;20198;-74
2022/10/23 07:15:28;;;;;;;4.15;2.42;;;;;19.50;100874.00;;;;5088329;28;20225;-74
2022/10/23 07:17:55;;;;;;;2.95;2.28;;;;;19.50;100878.00;;;;5088314;28;20194;-75
2022/10/23 07:20:23;;;;;;;7.82;2.72;;;;;19.60;100882.00;;;;5088208;28;20202;-75
2022/10/23 07:22:53;;;;;;;3.95;2.05;;;;;19.60;100874.00;;;;5088383;28;20198;-75
2022/10/23 07:25:20;;;;;;;2.33;1.73;;;;;19.60;100874.00;;;;5088695;28;20284;-75
2022/10/23 07:27:48;;;;;;;4.32;2.42;;;;;19.60;100867.00;;;;5088220;28;20219;-75
2022/10/23 07:30:15;;;;;;;3.85;1.95;;;;;19.60;100863.00;;;;5088007;28;20221;-75
2022/10/23 07:32:44;;;;;;;3.53;2.17;;;;;19.60;100858.00;;;;5087977;28;20229;-75
2022/10/23 07:35:14;;;;;;;3.03;2.10;;;;;19.70;100866.00;;;;5087967;28;20234;-75
2022/10/23 07:37:41;;;;;;;3.22;2.28;;;;;19.70;100863.00;;;;5088727;28;20198;-75
2022/10/23 07:40:09;;;;;;;5.63;2.70;;;;;19.70;100866.00;;;;5088320;28;20201;-75
2022/10/23 07:42:37;;;;;;;5.63;2.17;;;;;19.80;100861.00;;;;5088297;28;20186;-75
2022/10/23 07:45:06;;;;;;;4.00;2.50;;;;;19.80;100858.00;;;;5087544;28;20286;-75
2022/10/23 07:47:33;;;;;;;4.00;2.25;;;;;19.80;100857.00;;;;5088510;28;20195;-75
2022/10/23 07:50:02;;;;;;;4.85;2.60;;;;;19.80;100853.00;;;;5088760;28;20264;-75
2022/10/23 07:52:29;;;;;;;5.78;3.45;;;;;19.90;100854.00;;;;5088017;28;20206;-75
2022/10/23 07:54:56;;;;;;;3.58;2.47;;;;;19.90;100851.00;;;;5088316;28;20233;-75
2022/10/23 07:57:24;;;;;;;3.45;2.65;;;;;19.90;100839.00;;;;5089790;28;20668;-75
2022/10/23 07:59:51;;;;;;;6.82;3.10;;;;;19.90;100845.00;;;;5092053;28;20205;-75
2022/10/23 08:02:19;;;;;;;2.85;2.25;;;;;19.90;100844.00;;;;5091902;28;20206;-75
2022/10/23 08:04:49;;;;;;;3.88;2.50;;;;;19.90;100846.00;;;;5092428;28;20225;-75
2022/10/23 08:07:17;;;;;;;4.53;2.75;;;;;20.00;100845.00;;;;5091606;28;20291;-76
2022/10/23 08:09:45;;;;;;;4.68;2.42;;;;;20.00;100847.00;;;;5092271;28;20198;-75
2022/10/23 08:12:12;;;;;;;2.75;1.92;;;;;20.00;100835.00;;;;5090953;28;20202;-75
2022/10/23 08:14:39;;;;;;;3.83;2.35;;;;;20.10;100846.00;;;;5091726;28;20300;-75
2022/10/23 08:17:08;;;;;;;3.72;2.28;;;;;20.10;100833.00;;;;5091686;28;20198;-75
2022/10/23 08:19:35;;;;;;;9.30;2.90;;;;;20.10;100850.00;;;;5091310;28;20214;-75
2022/10/23 08:22:03;;;;;;;3.60;2.30;;;;;20.10;100844.00;;;;5090919;28;20699;-74
2022/10/23 08:24:31;;;;;;;5.97;2.03;;;;;20.10;100838.00;;;;5091131;28;20206;-75
2022/10/23 08:26:59;;;;;;;3.00;1.85;;;;;20.10;100833.00;;;;5091207;28;20206;-75
2022/10/23 08:29:26;;;;;;;7.78;1.90;;;;;20.20;100836.00;;;;5091110;28;20214;-75
2022/10/23 08:31:54;;;;;;;3.38;2.00;;;;;20.20;100819.00;;;;5092104;28;20202;-75
2022/10/23 08:34:22;;;;;;;4.75;2.40;;;;;20.20;100812.00;;;;5090328;28;20234;-75
2022/10/23 08:36:49;;;;;;;3.08;2.10;;;;;20.30;100823.00;;;;5091346;28;20209;-75
2022/10/23 08:39:17;;;;;;;3.20;2.47;;;;;20.30;100816.00;;;;5091268;28;20202;-75
2022/10/23 08:41:50;;;;;;;4.70;2.28;;;;;20.30;100807.00;;;;5091087;28;20202;-76
2022/10/23 08:44:23;;;;;;;3.47;2.03;;;;;20.30;100797.00;;;;5090170;28;20571;-75
2022/10/23 08:46:59;;;;;;;4.93;2.15;;;;;20.40;100801.00;;;;5091277;28;20224;-75
2022/10/23 08:49:36;;;;;;;5.20;2.22;;;;;20.40;100799.00;;;;5090782;28;20201;-75
2022/10/23 08:52:12;;;;;;;3.90;2.20;;;;;20.40;100797.00;;;;5091179;28;20198;-75
2022/10/23 08:54:49;;;;;;;2.45;2.05;;;;;20.40;100802.00;;;;5090839;28;20306;-75
2022/10/23 08:57:21;;;;;;;3.88;2.00;;;;;20.50;100802.00;;;;5090576;28;20194;-75
2022/10/23 08:59:52;;;;;;;4.72;2.13;;;;;20.50;100794.00;;;;5090613;28;20198;-76
2022/10/23 09:02:24;;;;;;;4.90;2.80;;;;;20.50;100792.00;;;;5090219;28;20206;-76
2022/10/23 09:04:54;;;;;;;3.90;2.00;;;;;20.60;100789.00;;;;5090672;28;20672;-77
2022/10/23 09:07:36;;;;;;;4.88;3.13;;;;;20.60;100780.00;;;;5089340;28;20202;-76
2022/10/23 09:10:31;;;;;;;3.20;1.55;;;;;20.50;100779.00;;;;5090418;28;20264;-77
2022/10/23 09:13:21;;;;;;;7.00;2.65;;;;;20.60;100773.00;;;;5090486;28;20202;-76
2022/10/23 09:15:58;;;;;;;2.17;1.58;;;;;20.70;100772.00;;;;5089888;28;20234;-76
2022/10/23 09:18:25;;;;;;;2.88;2.15;;;;;20.70;100776.00;;;;5090067;28;20434;-77
2022/10/23 09:20:52;;;;;;;2.85;1.88;;;;;20.70;100773.00;;;;5090307;28;20198;-77
2022/10/23 09:23:22;;;;;;;4.30;1.58;;;;;20.70;100774.00;;;;5090001;28;20281;-77
2022/10/23 09:25:55;;;;;;;5.18;1.65;;;;;20.70;100756.00;;;;5090365;28;20186;-76
2022/10/23 09:28:26;;;;;;;2.55;1.65;;;;;20.70;100764.00;;;;5089291;28;20572;-77
2022/10/23 09:30:54;;;;;;;3.75;2.03;;;;;20.80;100762.00;;;;5090265;28;20198;-77
2022/10/23 09:33:24;;;;;;;4.80;2.10;;;;;20.80;100760.00;;;;5089996;28;20234;-76
2022/10/23 09:35:54;;;;;;;5.95;2.67;;;;;20.80;100749.00;;;;5090390;28;20588;-76
2022/10/23 09:38:32;;;;;;;3.60;1.83;;;;;20.70;100744.00;;;;5090062;28;20202;-77
2022/10/23 09:41:05;;;;;;;3.42;2.00;;;;;20.80;100734.00;;;;5089644;28;20194;-77
2022/10/23 09:43:34;;;;;;;2.78;1.92;;;;;20.80;100733.00;;;;5089609;28;20194;-77
2022/10/23 09:46:03;;;;;;;6.32;2.03;;;;;20.80;100743.00;;;;5090270;28;20196;-77
2022/10/23 09:48:31;;;;;;;2.47;1.92;;;;;20.90;100736.00;;;;5089960;28;20194;-76
2022/10/23 09:51:00;;;;;;;3.63;2.33;;;;;20.90;100729.00;;;;5089915;28;20190;-76
2022/10/23 09:53:33;;;;;;;4.15;2.35;;;;;20.80;100735.00;;;;5089469;28;20199;-77
2022/10/23 09:56:03;;;;;;;4.72;2.05;;;;;20.90;100734.00;;;;5089573;28;20222;-77
2022/10/23 09:58:36;;;;;;;2.30;1.80;;;;;20.90;100728.00;;;;5089228;28;20197;-77
2022/10/23 10:01:04;;;;;;;2.65;2.03;;;;;20.90;100720.00;;;;5090344;28;20209;-77
2022/10/23 10:03:32;;;;;;;2.83;1.83;;;;;20.90;100719.00;;;;5089294;28;20190;-76
2022/10/23 10:06:01;;;;;;;3.58;2.10;;;;;20.90;100725.00;;;;5089709;28;20225;-76
2022/10/23 10:08:43;;;;;;;4.88;2.33;;;;;20.80;100714.00;;;;5088001;28;20205;-77
2022/10/23 10:11:15;;;;;;;3.35;1.65;;;;;20.90;100707.00;;;;5109625;28;20198;-77
2022/10/23 10:14:01;;;;;;;3.15;1.83;;;;;20.90;100705.00;;;;5109235;28;20225;-76
2022/10/23 10:16:39;;;;;;;3.15;2.00;;;;;20.90;100700.00;;;;5109073;28;20193;-76
2022/10/23 10:19:17;;;;;;;3.30;1.70;;;;;21.00;100700.00;;;;5109002;28;20228;-76
2022/10/23 10:21:52;;;;;;;5.85;1.90;;;;;21.00;100691.00;;;;5109073;28;20198;-76
2022/10/23 10:24:24;;;;;;;3.58;2.08;;;;;21.00;100689.00;;;;5109654;28;20197;-76
2022/10/23 10:27:01;;;;;;;3.00;1.98;;;;;21.00;100688.00;;;;5109668;28;20197;-77
2022/10/23 10:29:48;;;;;;;2.00;1.73;;;;;21.00;100673.00;;;;5109159;28;20217;-76
2022/10/23 10:32:31;;;;;;;3.15;2.03;;;;;21.10;100677.00;;;;5109555;28;20655;-76
2022/10/23 10:35:09;;;;;;;2.70;1.83;;;;;21.10;100662.00;;;;5110428;28;20240;-76
2022/10/23 10:37:51;;;;;;;6.50;2.35;;;;;21.10;100663.00;;;;5110149;28;20663;-76
2022/10/23 10:40:24;;;;;;;1.63;1.42;;;;;21.20;100663.00;;;;5109184;28;20216;-77
2022/10/23 10:43:08;;;;;;;2.20;1.33;;;;;21.20;100655.00;;;;5109410;28;20220;-77
2022/10/23 10:45:39;;;;;;;2.97;1.50;;;;;21.30;100646.00;;;;5109823;28;20567;-77
2022/10/23 10:48:34;;;;;;;2.05;1.63;;;;;21.20;100627.00;;;;5109467;28;20208;-77
2022/10/23 10:51:06;;;;;;;1.83;1.20;;;;;21.40;100622.00;;;;5109733;28;20639;-77
2022/10/23 10:53:46;;;;;;;5.00;1.70;;;;;21.30;100628.00;;;;5109235;28;20197;-77
2022/10/23 10:56:20;;;;;;;3.60;1.40;;;;;21.40;100626.00;;;;5109446;28;20225;-77
2022/10/23 10:58:52;;;;;;;2.22;1.50;;;;;21.50;100621.00;;;;5109230;28;20205;-76
2022/10/23 11:01:26;;;;;;;1.98;1.23;;;;;21.50;100619.00;;;;5108614;28;20904;-77
2022/10/23 11:03:59;;;;;;;4.05;1.80;;;;;21.60;100618.00;;;;5109333;28;20670;-76
2022/10/23 11:06:30;;;;;;;4.53;1.90;;;;;21.60;100612.00;;;;5108947;28;20224;-77
2022/10/23 11:09:04;;;;;;;3.00;1.35;;;;;21.60;100615.00;;;;5109582;28;20202;-77
2022/10/23 11:11:36;;;;;;;1.73;1.35;;;;;21.70;100614.00;;;;5108796;28;20570;-76
2022/10/23 11:14:03;;;;;;;4.70;1.38;;;;;21.80;100619.00;;;;5109169;28;20205;-77
2022/10/23 11:16:36;;;;;;;4.90;1.25;;;;;21.80;100619.00;;;;5109165;28;20244;-76
2022/10/23 11:19:07;;;;;;;3.45;1.40;;;;;21.80;100612.00;;;;5109100;28;20655;-77
2022/10/23 11:21:40;;;;;;;3.17;1.17;;;;;21.90;100604.00;;;;5107898;28;20705;-76
2022/10/23 11:24:41;;;;;;;3.80;1.40;;;;;21.80;100605.00;;;;5108462;28;20679;-77
2022/10/23 11:27:25;;;;;;;1.88;1.20;;;;;21.90;100598.00;;;;5074042;28;20212;-76
2022/10/23 11:30:08;;;;;;;2.75;1.42;;;;;22.00;100583.00;;;;5108438;28;20208;-76
2022/10/23 11:33:04;;;;;;;2.92;1.52;;;;;22.00;100580.00;;;;5111442;28;20712;-76
2022/10/23 11:36:04;;;;;;;2.25;1.23;;;;;22.00;100569.00;;;;5113465;28;20232;-77
2022/10/23 11:38:34;;;;;;;5.22;1.58;;;;;22.20;100559.00;;;;5102204;28;20201;-77
2022/10/23 11:41:04;;;;;;;2.75;1.80;;;;;22.30;100554.00;;;;5113212;28;20198;-76
2022/10/23 11:43:34;;;;;;;5.88;1.60;;;;;22.40;100540.00;;;;5112622;28;20197;-77
2022/10/23 11:46:12;;;;;;;2.88;1.70;;;;;22.40;100542.00;;;;5113058;28;20243;-77
2022/10/23 11:48:43;;;;;;;3.42;1.70;;;;;22.50;100548.00;;;;5112524;28;20205;-77
2022/10/23 11:51:29;;;;;;;4.28;1.85;;;;;22.50;100539.00;;;;5112610;28;20205;-76
2022/10/23 11:54:25;;;;;;;3.72;1.75;;;;;22.60;100533.00;;;;5112783;28;20691;-77
2022/10/23 11:57:02;;;;;;;3.47;1.40;;;;;22.70;100535.00;;;;5112381;28;20671;-77
2022/10/23 11:59:31;;;;;;;3.33;1.30;;;;;22.80;100545.00;;;;5112388;28;20204;-77
2022/10/23 12:02:00;;;;;;;3.47;1.40;;;;;22.80;100542.00;;;;5112492;28;20651;-77
2022/10/23 12:04:39;;;;;;;1.92;1.08;;;;;22.80;100544.00;;;;5112457;28;20185;-77
2022/10/23 12:07:17;;;;;;;4.32;1.45;;;;;22.90;100544.00;;;;5111715;28;20211;-77
2022/10/23 12:09:46;;;;;;;2.72;1.30;;;;;23.00;100538.00;;;;5111774;28;20197;-77
2022/10/23 12:12:17;;;;;;;1.77;1.02;;;;;23.00;100522.00;;;;5112176;28;20208;-76
2022/10/23 12:14:47;;;;;;;3.38;1.52;;;;;23.10;100521.00;;;;5111621;28;20288;-77
2022/10/23 12:17:34;;;;;;;8.32;1.60;;;;;23.00;100517.00;;;;5112371;28;20198;-77
2022/10/23 12:20:25;;;;;;;4.65;1.40;;;;;23.10;100499.00;;;;5111914;28;20658;-74
2022/10/23 12:23:05;;;;;;;3.90;1.38;;;;;23.20;100493.00;;;;5111793;28;20208;-77
2022/10/23 12:25:41;;;;;;;2.60;1.27;;;;;23.20;100494.00;;;;5111884;28;20205;-77
2022/10/23 12:28:20;;;;;;;2.47;1.83;;;;;23.30;100492.00;;;;5111287;28;20217;-77